createdAt,value
2019-03-11T00:02:45.153Z,6.57
2019-03-11T00:05:35.170Z,6.64
2019-03-11T00:08:24.453Z,6.66
2019-03-11T00:11:14.277Z,6.65
2019-03-11T00:14:05.824Z,6.66
2019-03-11T00:16:55.489Z,6.68
2019-03-11T00:19:45.285Z,6.65
2019-03-11T00:22:35.247Z,6.62
2019-03-11T00:25:24.981Z,6.67
2019-03-11T00:28:14.669Z,6.61
2019-03-11T00:31:05.035Z,6.53
2019-03-11T00:33:55.042Z,6.53
2019-03-11T00:36:45.091Z,6.52
2019-03-11T00:39:34.876Z,6.48
2019-03-11T00:42:24.564Z,6.58
2019-03-11T00:45:15.767Z,6.59
2019-03-11T00:48:06.006Z,6.60
2019-03-11T00:50:55.891Z,6.58
2019-03-11T00:53:45.998Z,6.58
2019-03-11T00:56:36.102Z,6.65
2019-03-11T00:59:25.709Z,6.63
2019-03-11T01:02:15.347Z,6.65
2019-03-11T01:05:05.872Z,6.62
2019-03-11T01:07:55.957Z,6.57
2019-03-11T01:10:45.847Z,6.61
2019-03-11T01:13:35.827Z,6.54
2019-03-11T01:16:25.695Z,6.55
2019-03-11T01:19:15.229Z,6.58
2019-03-11T01:22:05.234Z,6.60
2019-03-11T01:24:55.444Z,6.63
2019-03-11T01:27:45.107Z,6.67
2019-03-11T01:30:34.938Z,6.65
2019-03-11T01:33:25.003Z,6.60
2019-03-11T01:36:15.095Z,6.62
2019-03-11T01:39:06.367Z,6.61
2019-03-11T01:41:56.488Z,6.61
2019-03-11T01:44:46.320Z,6.63
2019-03-11T01:47:36.188Z,6.63
2019-03-11T01:50:26.255Z,6.67
2019-03-11T01:53:16.275Z,6.79
2019-03-11T01:56:06.143Z,6.86
2019-03-11T01:58:56.118Z,6.79
2019-03-11T02:01:48.290Z,6.80
2019-03-11T02:04:37.471Z,6.87
2019-03-11T02:07:27.353Z,6.82
2019-03-11T02:10:17.813Z,6.81
2019-03-11T02:13:07.676Z,6.80
2019-03-11T02:16:09.638Z,6.74
2019-03-11T02:18:59.428Z,6.72
2019-03-11T02:21:49.247Z,6.74
2019-03-11T02:24:39.157Z,6.71
2019-03-11T02:27:29.970Z,6.73
2019-03-11T02:30:19.885Z,6.75
2019-03-11T02:33:09.985Z,6.73
2019-03-11T02:36:00.130Z,6.74
2019-03-11T02:38:50.598Z,6.78
2019-03-11T02:41:40.865Z,6.72
2019-03-11T02:44:30.611Z,6.72
2019-03-11T02:47:20.538Z,6.67
2019-03-11T02:50:10.795Z,6.68
2019-03-11T02:53:00.587Z,6.61
2019-03-11T02:55:51.455Z,6.62
2019-03-11T02:58:41.351Z,6.60
2019-03-11T03:01:50.598Z,6.49
2019-03-11T03:04:43.643Z,6.44
2019-03-11T03:07:33.153Z,6.46
2019-03-11T03:10:23.305Z,6.44
2019-03-11T03:13:13.287Z,6.37
2019-03-11T03:16:03.297Z,6.35
2019-03-11T03:18:52.867Z,6.35
2019-03-11T03:21:42.439Z,6.36
2019-03-11T03:24:31.999Z,6.39
2019-03-11T03:27:21.842Z,6.44
2019-03-11T03:30:17.030Z,6.47
2019-03-11T03:33:07.166Z,6.49
2019-03-11T03:35:56.952Z,6.46
2019-03-11T03:38:47.141Z,6.41
2019-03-11T03:41:37.314Z,6.43
2019-03-11T03:44:27.924Z,6.47
2019-03-11T03:47:17.456Z,6.50
2019-03-11T03:50:08.226Z,6.47
2019-03-11T03:52:58.467Z,6.44
2019-03-11T03:55:48.039Z,6.45
2019-03-11T03:58:37.942Z,6.41
2019-03-11T04:01:27.963Z,6.39
2019-03-11T04:04:17.937Z,6.45
2019-03-11T04:07:07.984Z,6.46
2019-03-11T04:09:57.413Z,6.49
2019-03-11T04:12:47.327Z,6.56
2019-03-11T04:15:37.456Z,6.57
2019-03-11T04:18:49.697Z,6.54
2019-03-11T04:21:39.687Z,6.48
2019-03-11T04:24:29.823Z,6.54
2019-03-11T04:27:20.366Z,6.62
2019-03-11T04:30:18.183Z,6.64
2019-03-11T04:33:08.042Z,6.70
2019-03-11T04:35:58.590Z,6.75
2019-03-11T04:38:48.665Z,6.77
2019-03-11T04:41:38.392Z,6.80
2019-03-11T04:44:28.452Z,6.76
2019-03-11T04:47:18.475Z,6.81
2019-03-11T04:50:10.890Z,6.84
2019-03-11T04:53:00.835Z,6.87
2019-03-11T04:55:51.072Z,6.90
2019-03-11T04:58:41.115Z,6.92
2019-03-11T05:01:32.208Z,6.95
2019-03-11T05:04:22.398Z,6.96
2019-03-11T05:07:12.193Z,6.99
2019-03-11T05:10:02.167Z,7.01
2019-03-11T05:12:52.256Z,7.06
2019-03-11T05:15:42.236Z,7.06
2019-03-11T05:18:32.648Z,7.07
2019-03-11T05:21:22.719Z,7.12
2019-03-11T05:24:13.080Z,7.13
2019-03-11T05:27:03.249Z,7.14
2019-03-11T05:29:52.604Z,7.15
2019-03-11T05:32:42.422Z,7.14
2019-03-11T05:35:32.562Z,7.16
2019-03-11T05:38:22.440Z,7.17
2019-03-11T05:41:12.276Z,7.20
2019-03-11T05:44:02.385Z,7.21
2019-03-11T05:46:52.385Z,7.27
2019-03-11T05:49:42.593Z,7.30
2019-03-11T05:52:32.608Z,7.33
2019-03-11T05:55:22.868Z,7.36
2019-03-11T05:58:12.852Z,7.38
2019-03-11T06:01:02.749Z,7.41
2019-03-11T06:03:52.836Z,7.37
2019-03-11T06:06:42.774Z,7.41
2019-03-11T06:09:32.612Z,7.35
2019-03-11T06:12:22.994Z,7.34
2019-03-11T06:15:14.770Z,7.32
2019-03-11T06:18:04.372Z,7.32
2019-03-11T06:21:15.844Z,7.36
2019-03-11T06:24:06.097Z,7.36
2019-03-11T06:26:56.295Z,7.41
2019-03-11T06:29:46.137Z,7.43
2019-03-11T06:32:35.887Z,7.38
2019-03-11T06:35:25.912Z,7.38
2019-03-11T06:38:15.958Z,7.43
2019-03-11T06:41:06.301Z,7.46
2019-03-11T06:43:56.507Z,7.49
2019-03-11T06:46:46.477Z,7.30
2019-03-11T06:49:36.343Z,7.33
2019-03-11T06:52:26.056Z,7.27
2019-03-11T06:55:16.257Z,7.19
2019-03-11T06:58:05.961Z,7.18
2019-03-11T07:00:55.800Z,7.10
2019-03-11T07:03:46.236Z,6.95
2019-03-11T07:06:36.003Z,6.90
2019-03-11T07:09:26.365Z,6.78
2019-03-11T07:12:16.660Z,6.70
2019-03-11T07:15:07.892Z,6.63
2019-03-11T07:17:57.782Z,6.56
2019-03-11T07:20:47.168Z,6.51
2019-03-11T07:23:37.105Z,6.48
2019-03-11T07:26:27.000Z,6.44
2019-03-11T07:29:17.082Z,6.49
2019-03-11T07:32:06.916Z,6.52
2019-03-11T07:35:07.644Z,6.82
2019-03-11T07:37:48.519Z,7.32
2019-03-11T07:40:38.829Z,7.66
2019-03-11T07:43:28.849Z,7.98
2019-03-11T07:46:19.144Z,8.32
2019-03-11T07:49:08.924Z,8.58
2019-03-11T07:51:58.901Z,8.84
2019-03-11T07:54:48.897Z,9.11
2019-03-11T07:57:39.004Z,9.27
2019-03-11T08:00:29.178Z,9.30
2019-03-11T08:03:19.527Z,9.32
2019-03-11T08:06:18.072Z,9.28
2019-03-11T08:09:02.099Z,9.37
2019-03-11T08:11:53.394Z,9.42
2019-03-11T08:14:43.430Z,9.54
2019-03-11T08:17:33.506Z,9.57
2019-03-11T08:20:23.362Z,9.52
2019-03-11T08:23:12.891Z,9.56
2019-03-11T08:26:02.920Z,9.62
2019-03-11T08:28:53.001Z,9.87
2019-03-11T08:31:43.006Z,10.16
2019-03-11T08:34:33.286Z,10.44
2019-03-11T08:37:23.329Z,10.59
2019-03-11T08:40:14.694Z,10.68
2019-03-11T08:43:04.452Z,10.64
2019-03-11T08:45:54.256Z,10.43
2019-03-11T08:48:44.208Z,10.37
2019-03-11T08:51:34.722Z,10.16
2019-03-11T08:54:24.615Z,10.05
2019-03-11T08:57:14.628Z,9.77
2019-03-11T09:00:05.822Z,9.65
2019-03-11T09:02:56.037Z,9.55
2019-03-11T09:05:46.659Z,9.60
2019-03-11T09:08:36.607Z,9.80
2019-03-11T09:11:26.598Z,10.17
2019-03-11T09:14:16.457Z,10.33
2019-03-11T09:17:07.014Z,10.21
2019-03-11T09:19:57.041Z,10.20
2019-03-11T09:22:47.162Z,10.09
2019-03-11T09:25:37.509Z,10.15
2019-03-11T09:28:27.870Z,10.19
2019-03-11T09:31:17.550Z,10.51
2019-03-11T09:34:07.980Z,10.87
2019-03-11T09:36:57.523Z,10.91
2019-03-11T09:39:47.364Z,10.83
2019-03-11T09:42:37.267Z,10.81
2019-03-11T09:45:27.599Z,10.77
2019-03-11T09:48:17.408Z,10.59
2019-03-11T09:51:07.810Z,10.25
2019-03-11T09:53:57.801Z,10.11
2019-03-11T09:56:47.812Z,9.96
2019-03-11T09:59:37.953Z,10.12
2019-03-11T10:02:28.420Z,10.42
2019-03-11T10:05:17.927Z,10.60
2019-03-11T10:08:07.815Z,10.49
2019-03-11T10:10:57.321Z,10.42
2019-03-11T10:13:47.318Z,10.50
2019-03-11T10:16:37.157Z,10.49
2019-03-11T10:19:26.699Z,10.45
2019-03-11T10:22:17.321Z,10.53
2019-03-11T10:25:08.191Z,11.07
2019-03-11T10:27:58.105Z,12.29
2019-03-11T10:30:49.339Z,13.27
2019-03-11T10:33:39.276Z,14.28
2019-03-11T10:36:29.615Z,14.46
2019-03-11T10:39:19.429Z,14.41
2019-03-11T10:42:09.932Z,14.00
2019-03-11T10:44:59.750Z,13.51
2019-03-11T10:47:49.936Z,13.00
2019-03-11T10:50:40.221Z,12.38
2019-03-11T10:53:31.195Z,11.75
2019-03-11T10:56:21.411Z,11.50
2019-03-11T10:59:11.376Z,11.17
2019-03-11T11:02:01.724Z,10.92
2019-03-11T11:04:52.869Z,10.63
2019-03-11T11:07:42.975Z,10.58
2019-03-11T11:10:33.424Z,10.61
2019-03-11T11:13:23.665Z,10.62
2019-03-11T11:16:13.531Z,10.51
2019-03-11T11:19:03.498Z,10.46
2019-03-11T11:21:53.600Z,10.41
2019-03-11T11:24:43.475Z,10.38
2019-03-11T11:27:33.171Z,10.32
2019-03-11T11:30:24.285Z,10.24
2019-03-11T11:33:14.194Z,10.17
2019-03-11T11:36:03.981Z,10.11
2019-03-11T11:38:53.750Z,10.09
2019-03-11T11:41:44.062Z,10.12
2019-03-11T11:44:33.865Z,10.15
2019-03-11T11:47:23.746Z,10.13
2019-03-11T11:50:16.475Z,9.95
2019-03-11T11:53:06.211Z,10.02
2019-03-11T11:55:58.008Z,10.47
2019-03-11T11:58:47.454Z,11.46
2019-03-11T12:01:37.407Z,12.47
2019-03-11T12:04:27.392Z,12.76
2019-03-11T12:07:17.015Z,12.66
2019-03-11T12:10:07.750Z,12.38
2019-03-11T12:12:57.653Z,12.05
2019-03-11T12:15:47.193Z,11.91
2019-03-11T12:18:36.940Z,11.55
2019-03-11T12:21:26.889Z,11.20
2019-03-11T12:24:17.112Z,11.00
2019-03-11T12:27:07.562Z,10.89
2019-03-11T12:29:58.049Z,10.77
2019-03-11T12:32:48.487Z,10.81
2019-03-11T12:35:38.468Z,10.97
2019-03-11T12:38:28.898Z,11.11
2019-03-11T12:41:19.455Z,11.04
2019-03-11T12:44:09.530Z,11.00
2019-03-11T12:46:59.232Z,10.84
2019-03-11T12:49:49.480Z,10.88
2019-03-11T12:52:39.845Z,10.83
2019-03-11T12:55:29.959Z,10.87
2019-03-11T12:58:20.470Z,10.91
2019-03-11T13:01:10.086Z,10.79
2019-03-11T13:03:59.927Z,10.96
2019-03-11T13:06:50.083Z,11.17
2019-03-11T13:09:40.209Z,11.12
2019-03-11T13:12:31.526Z,10.89
2019-03-11T13:15:22.425Z,10.76
2019-03-11T13:18:50.964Z,10.88
2019-03-11T13:21:42.738Z,11.18
2019-03-11T13:24:32.609Z,11.34
2019-03-11T13:27:22.711Z,11.62
2019-03-11T13:30:13.718Z,11.97
2019-03-11T13:33:03.698Z,12.18
2019-03-11T13:35:56.633Z,12.33
2019-03-11T13:38:45.850Z,12.27
2019-03-11T13:41:35.802Z,12.19
2019-03-11T13:44:26.217Z,12.27
2019-03-11T13:47:16.191Z,12.05
2019-03-11T13:50:08.074Z,12.22
2019-03-11T13:52:58.083Z,12.09
2019-03-11T13:55:47.997Z,11.78
2019-03-11T13:58:37.823Z,11.53
2019-03-11T14:01:27.963Z,11.37
2019-03-11T14:04:18.235Z,11.17
2019-03-11T14:07:07.956Z,11.07
2019-03-11T14:09:58.058Z,10.89
2019-03-11T14:12:47.692Z,10.75
2019-03-11T14:15:37.160Z,10.58
2019-03-11T14:18:27.363Z,10.48
2019-03-11T14:21:25.302Z,10.45
2019-03-11T14:24:09.171Z,10.39
2019-03-11T14:26:59.694Z,10.31
2019-03-11T14:29:49.554Z,10.33
2019-03-11T14:32:39.834Z,10.32
2019-03-11T14:35:29.520Z,10.23
2019-03-11T14:38:19.110Z,10.22
2019-03-11T14:41:08.957Z,10.09
2019-03-11T14:44:00.899Z,9.97
2019-03-11T14:46:50.393Z,9.87
2019-03-11T14:49:40.256Z,9.86
2019-03-11T14:52:30.252Z,9.82
2019-03-11T14:55:20.671Z,9.79
2019-03-11T14:58:10.778Z,9.84
2019-03-11T15:01:01.026Z,9.84
2019-03-11T15:03:50.985Z,9.95
2019-03-11T15:06:40.968Z,9.94
2019-03-11T15:09:31.149Z,9.95
2019-03-11T15:12:21.498Z,9.92
2019-03-11T15:15:14.497Z,9.92
2019-03-11T15:18:13.530Z,9.92
2019-03-11T15:21:04.502Z,9.89
2019-03-11T15:23:54.689Z,9.74
2019-03-11T15:26:44.724Z,9.62
2019-03-11T15:29:34.353Z,9.73
2019-03-11T15:32:24.177Z,9.79
2019-03-11T15:35:14.543Z,9.73
2019-03-11T15:38:04.622Z,9.69
2019-03-11T15:40:55.200Z,9.74
2019-03-11T15:43:45.343Z,9.68
2019-03-11T15:46:39.466Z,9.67
2019-03-11T15:49:27.371Z,9.60
2019-03-11T15:52:16.966Z,9.67
2019-03-11T15:55:07.481Z,9.66
2019-03-11T15:57:57.803Z,9.62
2019-03-11T16:00:47.796Z,9.47
2019-03-11T16:03:37.458Z,9.54
2019-03-11T16:06:27.454Z,9.48
2019-03-11T16:09:19.691Z,9.51
2019-03-11T16:12:09.604Z,9.46
2019-03-11T16:14:59.307Z,9.41
2019-03-11T16:17:49.394Z,9.30
2019-03-11T16:20:39.760Z,9.22
2019-03-11T16:23:29.692Z,9.14
2019-03-11T16:26:19.914Z,8.96
2019-03-11T16:29:10.480Z,8.81
2019-03-11T16:32:00.388Z,8.65
2019-03-11T16:34:50.800Z,8.64
2019-03-11T16:37:40.711Z,8.63
2019-03-11T16:40:30.832Z,8.55
2019-03-11T16:43:20.536Z,8.51
2019-03-11T16:46:10.853Z,8.47
2019-03-11T16:49:00.755Z,8.38
2019-03-11T16:51:50.781Z,8.37
2019-03-11T16:54:40.597Z,8.23
2019-03-11T16:57:30.500Z,8.08
2019-03-11T17:00:24.821Z,7.90
2019-03-11T17:03:14.757Z,7.72
2019-03-11T17:06:05.779Z,7.57
2019-03-11T17:08:57.205Z,7.47
2019-03-11T17:11:47.067Z,7.31
2019-03-11T17:14:37.081Z,7.25
2019-03-11T17:17:27.222Z,7.21
2019-03-11T17:20:17.754Z,7.19
2019-03-11T17:23:07.659Z,7.13
2019-03-11T17:25:57.840Z,7.07
2019-03-11T17:28:47.812Z,7.03
2019-03-11T17:31:38.115Z,7.02
2019-03-11T17:34:29.541Z,6.99
2019-03-11T17:37:19.664Z,6.99
2019-03-11T17:40:12.547Z,6.93
2019-03-11T17:43:02.438Z,6.95
2019-03-11T17:45:52.133Z,6.96
2019-03-11T17:48:42.849Z,7.00
2019-03-11T17:51:33.426Z,6.99
2019-03-11T17:54:23.217Z,7.00
2019-03-11T17:57:14.072Z,7.01
2019-03-11T18:00:06.245Z,6.98
2019-03-11T18:03:00.375Z,6.95
2019-03-11T18:05:49.850Z,6.92
2019-03-11T18:08:39.855Z,6.89
2019-03-11T18:11:30.573Z,6.82
2019-03-11T18:14:22.241Z,6.81
2019-03-11T18:17:12.014Z,6.84
2019-03-11T18:20:01.462Z,6.81
2019-03-11T18:22:51.665Z,6.83
2019-03-11T18:25:44.067Z,6.78
2019-03-11T18:28:34.170Z,6.77
2019-03-11T18:31:24.601Z,6.83
2019-03-11T18:34:14.947Z,6.87
2019-03-11T18:37:04.734Z,6.84
2019-03-11T18:39:56.017Z,6.86
2019-03-11T18:42:45.898Z,6.85
2019-03-11T18:45:36.202Z,6.82
2019-03-11T18:48:26.355Z,6.80
2019-03-11T18:51:16.375Z,6.82
2019-03-11T18:54:06.659Z,6.80
2019-03-11T18:56:56.630Z,6.85
2019-03-11T18:59:46.711Z,6.83
2019-03-11T19:02:36.883Z,6.84
2019-03-11T19:05:27.223Z,6.91
2019-03-11T19:08:17.259Z,6.93
2019-03-11T19:11:07.136Z,6.99
2019-03-11T19:13:56.791Z,6.96
2019-03-11T19:16:46.555Z,6.98
2019-03-11T19:19:45.592Z,6.96
2019-03-11T19:22:27.717Z,6.93
2019-03-11T19:25:17.604Z,6.91
2019-03-11T19:28:07.496Z,6.93
2019-03-11T19:30:57.440Z,6.95
2019-03-11T19:33:47.856Z,7.00
2019-03-11T19:36:37.976Z,7.00
2019-03-11T19:39:28.113Z,6.98
2019-03-11T19:42:18.132Z,6.98
2019-03-11T19:45:09.257Z,6.93
2019-03-11T19:47:59.178Z,6.91
2019-03-11T19:50:49.101Z,6.92
2019-03-11T19:53:39.009Z,6.80
2019-03-11T19:56:29.675Z,6.79
2019-03-11T19:59:19.793Z,6.76
2019-03-11T20:02:09.596Z,6.77
2019-03-11T20:04:59.513Z,6.74
2019-03-11T20:07:49.675Z,6.71
2019-03-11T20:10:40.764Z,6.66
2019-03-11T20:13:31.080Z,6.68
2019-03-11T20:16:21.573Z,6.59
2019-03-11T20:19:11.651Z,6.55
2019-03-11T20:22:01.102Z,6.47
2019-03-11T20:24:50.446Z,6.48
2019-03-11T20:27:40.411Z,6.46
2019-03-11T20:30:30.506Z,6.40
2019-03-11T20:33:20.329Z,6.44
2019-03-11T20:36:20.258Z,6.34
2019-03-11T20:39:01.878Z,6.32
2019-03-11T20:41:53.452Z,6.30
2019-03-11T20:44:43.862Z,6.30
2019-03-11T20:47:33.646Z,6.28
2019-03-11T20:50:23.464Z,6.30
2019-03-11T20:53:13.446Z,6.31
2019-03-11T20:56:03.704Z,6.25
2019-03-11T20:58:53.971Z,6.27
2019-03-11T21:01:44.087Z,6.27
2019-03-11T21:04:33.869Z,6.30
2019-03-11T21:07:24.423Z,6.32
2019-03-11T21:10:16.215Z,6.34
2019-03-11T21:13:07.114Z,6.34
2019-03-11T21:15:58.633Z,6.34
2019-03-11T21:18:52.078Z,6.34
2019-03-11T21:21:42.098Z,6.35
2019-03-11T21:24:32.381Z,6.35
2019-03-11T21:27:22.241Z,6.35
2019-03-11T21:30:18.310Z,6.37
2019-03-11T21:33:08.357Z,6.40
2019-03-11T21:35:57.996Z,6.42
2019-03-11T21:38:48.326Z,6.42
2019-03-11T21:41:38.606Z,6.42
2019-03-11T21:44:28.559Z,6.45
2019-03-11T21:47:18.374Z,6.43
2019-03-11T21:50:10.904Z,6.45
2019-03-11T21:53:00.547Z,6.42
2019-03-11T21:55:51.252Z,6.49
2019-03-11T21:58:41.109Z,6.46
2019-03-11T22:01:31.860Z,6.48
2019-03-11T22:04:25.877Z,6.44
2019-03-11T22:07:15.804Z,6.28
2019-03-11T22:10:06.434Z,6.19
2019-03-11T22:12:56.413Z,6.26
2019-03-11T22:15:46.859Z,6.26
2019-03-11T22:18:36.666Z,6.25
2019-03-11T22:21:26.503Z,6.26
2019-03-11T22:24:16.461Z,6.29
2019-03-11T22:27:07.258Z,6.35
2019-03-11T22:29:57.164Z,6.39
2019-03-11T22:32:47.545Z,6.42
2019-03-11T22:35:41.559Z,6.41
2019-03-11T22:38:32.868Z,6.31
2019-03-11T22:41:23.335Z,6.38
2019-03-11T22:44:16.099Z,6.42
2019-03-11T22:47:05.982Z,6.45
2019-03-11T22:49:56.331Z,6.42
2019-03-11T22:52:46.646Z,6.46
2019-03-11T22:55:39.048Z,6.50
2019-03-11T22:58:28.480Z,6.57
2019-03-11T23:01:20.763Z,6.63
2019-03-11T23:04:12.729Z,6.63
2019-03-11T23:07:02.958Z,6.64
2019-03-11T23:09:53.277Z,6.69
2019-03-11T23:12:43.407Z,6.64
2019-03-11T23:15:33.732Z,6.69
2019-03-11T23:18:23.603Z,6.70
2019-03-11T23:21:13.609Z,6.70
2019-03-11T23:24:03.451Z,6.70
2019-03-11T23:26:54.251Z,6.65
2019-03-11T23:29:43.662Z,6.63
2019-03-11T23:32:34.698Z,6.64
2019-03-11T23:35:24.981Z,6.66
2019-03-11T23:38:15.156Z,6.64
2019-03-11T23:41:04.952Z,6.67
2019-03-11T23:43:55.009Z,6.63
2019-03-11T23:46:45.471Z,6.62
2019-03-11T23:49:35.268Z,6.65
2019-03-11T23:52:25.162Z,6.72
2019-03-11T23:55:15.026Z,6.74
2019-03-11T23:58:05.236Z,6.68
